Somerset, Texas
Current Conditions -  °F | °C
As of 9:58 PM on Saturday 22 Nov 2014 (Local Time) from KSKF Reporting Station
Few Clouds Few Clouds  
Wind Chill: 15°   Ceiling: Unl
Heat Index: 15°   Visibility: 10mi
Dew Point: 13°   Wind: 5mph
Humidity: 88%   Direction: 260°W
Pressure: 29.73"   Gusts: NA
Location:  29.23°N, 98.66°W
Report Text: KSKF 230358Z AUTO 26004KT 10SM FEW220 15/13 A2973 RMK AO2 RAE0301 SLP064 P0000 T01480128 $
Loading
Personal Weather Stations






























Interactive Weather Map New forecast layout! Learn more

10-Day Weather Forecast

Advertisements
Track Severe Weather on mobile